MST,Max TemperatureF,Mean TemperatureF,Min TemperatureF,Max Dew PointF,MeanDew PointF,Min DewpointF,Max Humidity, Mean Humidity, Min Humidity, Max Sea Level PressureIn, Mean Sea Level PressureIn, Min Sea Level PressureIn, Max VisibilityMiles, Mean VisibilityMiles, Min VisibilityMiles, Max Wind SpeedMPH, Mean Wind SpeedMPH, Max Gust SpeedMPH,PrecipitationIn, CloudCover, Events, WindDirDegrees
2012-10-1,99,81,63,38,32,25,34,21,8,30.02,29.86,29.78,10,10,10,13,5,20,0.00,0,,130
2012-10-2,99,83,67,37,32,27,30,19,8,29.99,29.84,29.76,10,10,10,17,9,29,0.00,0,,185
2012-10-3,97,81,65,37,32,27,32,20,8,29.95,29.90,29.84,10,10,10,15,6,20,0.00,0,,179
2012-10-4,95,79,62,41,36,33,36,24,12,30.04,29.98,29.93,10,10,10,18,6,23,0.00,0,,191
2012-10-5,93,77,60,40,34,28,39,25,10,30.13,29.93,29.85,10,10,10,12,5,18,0.00,0,,183
2012-10-6,92,78,63,38,32,24,37,23,9,30.02,29.86,29.78,10,10,10,14,6,20,0.00,0,,192
2012-10-7,89,76,63,40,36,31,34,24,14,29.89,29.84,29.78,10,10,10,10,5,22,0.00,0,,188
2012-10-8,92,77,62,38,34,31,34,24,13,29.94,29.87,29.80,10,10,9,15,6,21,0.00,0,,179
2012-10-9,91,76,60,38,32,21,39,24,8,29.94,29.88,29.80,10,10,10,14,4,23,0.00,0,,176
2012-10-10,90,76,61,41,36,30,39,26,12,30.06,29.88,29.77,10,10,10,9,4,,0.00,0,,160
2012-10-11,86,76,66,55,46,39,53,37,20,29.91,29.83,29.76,10,10,10,21,7,28,T,4,,171
2012-10-12,75,66,57,50,43,38,65,46,27,30.11,29.99,29.84,10,10,10,16,8,22,0.00,1,,276
2012-10-13,78,64,50,38,36,33,56,38,20,30.13,30.06,29.98,10,10,10,13,4,17,0.00,0,,207
2012-10-14,90,71,52,35,30,23,46,28,9,30.07,29.98,29.88,10,10,10,22,8,25,0.00,0,,127
2012-10-15,92,76,59,29,23,10,29,17,5,29.96,29.88,29.79,10,10,10,13,6,22,0.00,0,,177
2012-10-16,89,72,55,30,25,20,28,18,8,29.96,29.81,29.73,10,10,10,10,5,18,0.00,0,,175
2012-10-17,91,74,56,44,36,26,43,28,13,29.90,29.84,29.78,10,10,10,14,5,18,0.00,0,,181
2012-10-18,86,75,63,59,53,41,68,48,27,30.02,29.94,29.88,10,10,10,16,5,23,0.00,0,,300
2012-10-19,91,75,59,52,42,29,64,38,11,29.95,29.85,29.75,10,10,10,10,4,17,0.00,0,,235
2012-10-20,89,75,61,45,40,35,40,29,18,29.92,29.78,29.72,10,10,10,14,5,18,0.00,0,,204
2012-10-21,86,73,59,46,40,34,55,36,16,29.86,29.81,29.75,10,10,10,17,6,23,0.00,0,,187
2012-10-22,85,70,54,43,40,36,57,38,18,29.92,29.85,29.81,10,10,10,12,4,16,0.00,0,,166
2012-10-23,87,72,56,41,39,37,51,36,20,29.98,29.84,29.77,10,10,10,10,4,15,0.00,0,,164
2012-10-24,84,71,57,42,35,22,47,32,17,29.93,29.85,29.79,10,10,10,20,8,26,0.00,0,,244
2012-10-25,81,65,48,28,21,10,39,24,8,30.01,29.94,29.87,10,10,10,12,4,16,0.00,0,,209
2012-10-26,83,64,44,20,17,15,33,21,8,30.00,29.93,29.85,10,10,10,12,6,16,0.00,0,,262
2012-10-27,87,72,56,29,28,24,28,19,10,29.94,29.87,29.78,10,10,10,23,9,29,0.00,0,,101
2012-10-28,90,72,54,31,29,25,35,22,9,29.99,29.93,29.86,10,10,10,14,5,20,0.00,0,,146
2012-10-29,89,73,56,34,31,29,36,24,12,30.08,30.00,29.94,10,10,10,13,6,18,0.00,0,,143
2012-10-30,88,72,55,33,30,22,41,25,9,30.04,29.98,29.90,10,10,10,12,6,18,0.00,0,,173
2012-10-31,89,72,55,30,26,21,36,22,8,30.01,29.94,29.86,10,10,10,13,6,16,0.00,0,,152